createdAt,value
2022-12-28T00:01:32.854Z,98615.34
2022-12-28T00:04:03.381Z,98615.81
2022-12-28T00:06:32.398Z,98630.20
2022-12-28T00:09:01.287Z,98638.20
2022-12-28T00:11:30.936Z,98639.27
2022-12-28T00:14:00.887Z,98637.61
2022-12-28T00:16:35.289Z,98646.67
2022-12-28T00:19:07.339Z,98652.53
2022-12-28T00:21:34.836Z,98651.45
2022-12-28T00:24:02.582Z,98654.86
2022-12-28T00:26:33.299Z,98651.31
2022-12-28T00:29:05.342Z,98659.91
2022-12-28T00:31:32.099Z,98663.62
2022-12-28T00:33:59.824Z,98668.38
2022-12-28T00:37:08.386Z,98672.38
2022-12-28T00:38:57.300Z,98674.47
2022-12-28T00:41:25.426Z,98672.33
2022-12-28T00:43:53.122Z,98674.94
2022-12-28T00:46:20.840Z,98675.73
2022-12-28T00:48:48.231Z,98681.60
2022-12-28T00:51:19.362Z,98682.13
2022-12-28T00:53:47.206Z,98683.67
2022-12-28T00:56:18.877Z,98683.39
2022-12-28T00:58:49.138Z,98686.30
2022-12-28T01:01:20.962Z,98689.50
2022-12-28T01:03:49.066Z,98683.56
2022-12-28T01:06:20.390Z,98683.00
2022-12-28T01:08:48.263Z,98679.91
2022-12-28T01:11:25.755Z,98690.75
2022-12-28T01:13:57.620Z,98685.31
2022-12-28T01:16:33.229Z,98680.22
2022-12-28T01:19:04.972Z,98682.81
2022-12-28T01:21:34.729Z,98690.36
2022-12-28T01:24:07.299Z,98688.71
2022-12-28T01:26:35.249Z,98684.43
2022-12-28T01:29:03.414Z,98683.62
2022-12-28T01:31:33.342Z,98692.14
2022-12-28T01:34:01.915Z,98688.67
2022-12-28T01:36:32.369Z,98695.86
2022-12-28T01:39:03.838Z,98690.98
2022-12-28T01:41:37.103Z,98698.69
2022-12-28T01:44:10.275Z,98695.43
2022-12-28T01:46:54.975Z,98706.33
2022-12-28T01:49:45.937Z,98703.31
2022-12-28T01:52:28.241Z,98706.42
2022-12-28T01:55:19.306Z,98707.02
2022-12-28T01:57:52.386Z,98709.69
2022-12-28T02:00:20.359Z,98712.36
2022-12-28T02:02:59.065Z,98715.75
2022-12-28T02:05:34.493Z,98707.19
2022-12-28T02:08:07.196Z,98707.19
2022-12-28T02:10:42.805Z,98706.31
2022-12-28T02:13:07.416Z,98711.56
2022-12-28T02:15:35.765Z,98703.00
2022-12-28T02:18:03.895Z,98706.72
2022-12-28T02:20:43.971Z,98702.23
2022-12-28T02:24:06.165Z,98695.05
2022-12-28T02:27:14.623Z,98696.98
2022-12-28T02:30:11.043Z,98694.88
2022-12-28T02:33:04.773Z,98706.14
2022-12-28T02:36:02.634Z,98701.09
2022-12-28T02:38:49.343Z,98711.02
2022-12-28T02:41:23.988Z,98704.64
2022-12-28T02:43:54.128Z,98704.92
2022-12-28T02:46:49.593Z,98707.83
2022-12-28T02:49:46.227Z,98717.20
2022-12-28T02:52:39.026Z,98715.30
2022-12-28T02:56:08.402Z,98724.34
2022-12-28T02:59:01.084Z,98730.70
2022-12-28T03:01:54.175Z,98731.98
2022-12-28T03:04:50.208Z,98735.10
2022-12-28T03:07:45.411Z,98733.13
2022-12-28T03:10:45.493Z,98735.19
2022-12-28T03:13:44.496Z,98731.43
2022-12-28T03:16:25.151Z,98738.86
2022-12-28T03:19:22.085Z,98737.45
2022-12-28T03:22:13.117Z,98739.83
2022-12-28T03:25:04.200Z,98744.84
2022-12-28T03:27:52.776Z,98743.06
2022-12-28T03:30:41.218Z,98742.33
2022-12-28T03:33:13.330Z,98746.33
2022-12-28T03:36:07.111Z,98740.23
2022-12-28T03:39:13.803Z,98739.50
2022-12-28T03:42:41.662Z,98741.20
2022-12-28T03:45:45.669Z,98746.00
2022-12-28T03:48:11.893Z,98748.75
2022-12-28T03:50:50.759Z,98747.34
2022-12-28T03:53:36.038Z,98748.10
2022-12-28T03:56:16.575Z,98744.84
2022-12-28T03:58:53.881Z,98748.27
2022-12-28T04:01:32.935Z,98754.64
2022-12-28T04:04:04.685Z,98755.33
2022-12-28T04:06:39.754Z,98749.84
2022-12-28T04:09:09.250Z,98754.31
2022-12-28T04:11:42.328Z,98760.73
2022-12-28T04:14:13.207Z,98766.06
2022-12-28T04:16:43.176Z,98769.01
2022-12-28T04:19:12.866Z,98770.78
2022-12-28T04:21:40.706Z,98769.69
2022-12-28T04:24:08.823Z,98762.95
2022-12-28T04:26:37.371Z,98767.55
2022-12-28T04:29:05.161Z,98773.31
2022-12-28T04:31:40.464Z,98773.11
2022-12-28T04:34:10.036Z,98765.41
2022-12-28T04:36:39.954Z,98767.27
2022-12-28T04:39:09.878Z,98767.27
2022-12-28T04:41:37.562Z,98770.50
2022-12-28T04:44:05.268Z,98769.61
2022-12-28T04:46:33.042Z,98773.16
2022-12-28T04:49:01.130Z,98771.09
2022-12-28T04:51:29.657Z,98770.62
2022-12-28T04:53:58.160Z,98769.14
2022-12-28T04:56:27.519Z,98762.84
2022-12-28T04:58:57.940Z,98772.69
2022-12-28T05:01:26.223Z,98776.81
2022-12-28T05:03:57.374Z,98766.47
2022-12-28T05:06:26.780Z,98772.81
2022-12-28T05:08:56.796Z,98783.48
2022-12-28T05:11:27.856Z,98772.09
2022-12-28T05:13:56.843Z,98772.38
2022-12-28T05:16:27.295Z,98777.70
2022-12-28T05:18:57.009Z,98785.98
2022-12-28T05:21:27.805Z,98779.56
2022-12-28T05:23:56.022Z,98779.48
2022-12-28T05:26:28.187Z,98782.66
2022-12-28T05:28:56.752Z,98784.80
2022-12-28T05:31:24.989Z,98778.75
2022-12-28T05:33:54.546Z,98778.75
2022-12-28T05:36:27.468Z,98787.31
2022-12-28T05:38:56.366Z,98783.79
2022-12-28T05:41:27.783Z,98787.91
2022-12-28T05:43:57.553Z,98774.59
2022-12-28T05:46:29.468Z,98785.38
2022-12-28T05:48:57.625Z,98784.05
2022-12-28T05:51:29.024Z,98784.13
2022-12-28T05:53:59.780Z,98796.64
2022-12-28T05:56:29.757Z,98794.55
2022-12-28T05:59:01.918Z,98800.16
2022-12-28T06:01:34.039Z,98795.83
2022-12-28T06:04:05.276Z,98800.44
2022-12-28T06:06:34.730Z,98809.84
2022-12-28T06:09:03.495Z,98808.14
2022-12-28T06:11:31.656Z,98805.70
2022-12-28T06:14:00.180Z,98804.30
2022-12-28T06:16:31.030Z,98805.42
2022-12-28T06:18:59.453Z,98805.58
2022-12-28T06:21:32.395Z,98813.73
2022-12-28T06:24:02.156Z,98809.88
2022-12-28T06:26:35.928Z,98807.73
2022-12-28T06:29:04.645Z,98805.28
2022-12-28T06:31:38.756Z,98805.28
2022-12-28T06:34:09.603Z,98808.55
2022-12-28T06:36:43.454Z,98807.95
2022-12-28T06:39:14.176Z,98807.58
2022-12-28T06:41:42.738Z,98804.91
2022-12-28T06:44:13.259Z,98805.44
2022-12-28T06:46:41.436Z,98815.36
2022-12-28T06:49:09.051Z,98815.36
2022-12-28T06:51:39.918Z,98816.91
2022-12-28T06:54:09.376Z,98814.91
2022-12-28T06:56:38.069Z,98809.47
2022-12-28T06:59:06.010Z,98815.61
2022-12-28T07:01:39.832Z,98809.99
2022-12-28T07:04:10.259Z,98806.23
2022-12-28T07:06:42.280Z,98816.50
2022-12-28T07:09:14.024Z,98808.59
2022-12-28T07:11:42.466Z,98806.81
2022-12-28T07:14:10.486Z,98800.44
2022-12-28T07:19:05.043Z,98812.63
2022-12-28T07:21:37.137Z,98805.28
2022-12-28T07:24:06.078Z,98797.34
2022-12-28T07:26:36.693Z,98794.02
2022-12-28T07:29:06.698Z,98792.00
2022-12-28T07:31:44.197Z,98795.07
2022-12-28T07:34:07.588Z,98789.58
2022-12-28T07:36:35.069Z,98785.41
2022-12-28T07:39:02.757Z,98776.72
2022-12-28T07:41:33.680Z,98787.75
2022-12-28T07:44:01.939Z,98798.36
2022-12-28T07:46:33.411Z,98785.00
2022-12-28T07:49:01.673Z,98767.78
2022-12-28T07:51:34.298Z,98770.38
2022-12-28T07:54:03.102Z,98775.66
2022-12-28T07:59:05.892Z,98776.25
2022-12-28T08:01:36.128Z,98773.76
2022-12-28T08:04:11.083Z,98770.66
2022-12-28T08:06:41.993Z,98779.58
2022-12-28T08:09:12.736Z,98776.70
2022-12-28T08:11:43.811Z,98776.27
2022-12-28T08:14:12.433Z,98779.47
2022-12-28T08:16:42.449Z,98790.39
2022-12-28T08:19:11.580Z,98787.73
2022-12-28T08:21:43.103Z,98788.29
2022-12-28T08:24:18.095Z,98794.50
2022-12-28T08:26:47.132Z,98795.72
2022-12-28T08:29:18.798Z,98796.73
2022-12-28T08:31:46.885Z,98797.23
2022-12-28T08:34:19.411Z,98800.41
2022-12-28T08:36:47.071Z,98794.69
2022-12-28T08:39:15.022Z,98790.05
2022-12-28T08:41:42.781Z,98794.75
2022-12-28T08:44:10.425Z,98790.30
2022-12-28T08:46:39.847Z,98783.14
2022-12-28T08:49:07.744Z,98781.14
2022-12-28T08:51:40.782Z,98789.77
2022-12-28T08:54:10.678Z,98791.47
2022-12-28T08:56:41.851Z,98785.17
2022-12-28T08:59:13.623Z,98783.97
2022-12-28T09:01:44.500Z,98789.13
2022-12-28T09:04:20.648Z,98782.84
2022-12-28T09:06:48.816Z,98779.52
2022-12-28T09:09:19.289Z,98782.92
2022-12-28T09:11:48.009Z,98775.34
2022-12-28T09:14:22.719Z,98769.16
2022-12-28T09:16:45.450Z,98762.17
2022-12-28T09:19:15.250Z,98752.79
2022-12-28T09:21:44.856Z,98754.05
2022-12-28T09:24:13.653Z,98756.84
2022-12-28T09:26:41.364Z,98765.02
2022-12-28T09:29:13.127Z,98763.45
2022-12-28T09:31:41.888Z,98760.52
2022-12-28T09:36:44.458Z,98766.27
2022-12-28T09:39:16.833Z,98757.06
2022-12-28T09:41:57.870Z,98753.61
2022-12-28T09:45:00.126Z,98759.84
2022-12-28T09:47:45.445Z,98752.15
2022-12-28T09:50:28.716Z,98747.38
2022-12-28T09:53:17.114Z,98740.44
2022-12-28T09:55:50.441Z,98737.50
2022-12-28T09:58:17.988Z,98734.73
2022-12-28T10:00:49.522Z,98740.76
2022-12-28T10:03:27.410Z,98741.03
2022-12-28T10:05:57.477Z,98729.98
2022-12-28T10:08:27.448Z,98731.86
2022-12-28T10:10:59.883Z,98720.33
2022-12-28T10:16:05.949Z,98722.20
2022-12-28T10:18:39.384Z,98723.51
2022-12-28T10:21:05.448Z,98723.51
2022-12-28T10:23:41.246Z,98719.97
2022-12-28T10:26:07.192Z,98726.90
2022-12-28T10:28:54.099Z,98725.34
2022-12-28T10:31:37.625Z,98720.87
2022-12-28T10:34:23.873Z,98716.95
2022-12-28T10:36:54.288Z,98718.64
2022-12-28T10:39:28.789Z,98716.62
2022-12-28T10:41:58.668Z,98711.00
2022-12-28T10:44:40.113Z,98706.75
2022-12-28T10:47:17.759Z,98707.59
2022-12-28T10:50:10.448Z,98701.77
2022-12-28T10:52:21.405Z,98696.71
2022-12-28T10:55:07.461Z,98693.83
2022-12-28T10:57:28.935Z,98692.80
2022-12-28T11:00:22.611Z,98682.09
2022-12-28T11:02:50.300Z,98682.40
2022-12-28T11:05:22.898Z,98685.08
2022-12-28T11:07:55.832Z,98679.15
2022-12-28T11:10:29.716Z,98678.81
2022-12-28T11:13:00.644Z,98678.27
2022-12-28T11:15:31.896Z,98674.82
2022-12-28T11:18:04.480Z,98668.20
2022-12-28T11:20:36.871Z,98668.57
2022-12-28T11:23:08.858Z,98665.62
2022-12-28T11:25:37.715Z,98662.40
2022-12-28T11:28:09.739Z,98666.96
2022-12-28T11:30:37.159Z,98665.91
2022-12-28T11:33:07.876Z,98663.50
2022-12-28T11:35:39.095Z,98667.02
2022-12-28T11:38:09.948Z,98670.00
2022-12-28T11:40:51.649Z,98670.05
2022-12-28T11:43:38.732Z,98669.00
2022-12-28T11:46:27.282Z,98664.48
2022-12-28T11:49:01.462Z,98662.39
2022-12-28T11:51:35.459Z,98661.56
2022-12-28T11:54:08.711Z,98658.05
2022-12-28T11:56:54.005Z,98661.00
2022-12-28T11:59:31.462Z,98659.12
2022-12-28T12:02:09.589Z,98657.51
2022-12-28T12:04:44.385Z,98651.55
2022-12-28T12:07:29.074Z,98649.59
2022-12-28T12:10:30.921Z,98650.41
2022-12-28T12:12:59.556Z,98641.81
2022-12-28T12:15:35.691Z,98640.52
2022-12-28T12:18:08.089Z,98639.72
2022-12-28T12:20:58.809Z,98635.95
2022-12-28T12:23:39.400Z,98638.38
2022-12-28T12:26:21.638Z,98631.92
2022-12-28T12:28:53.941Z,98624.97
2022-12-28T12:31:33.196Z,98621.50
2022-12-28T12:34:25.909Z,98612.91
2022-12-28T12:37:40.166Z,98610.54
2022-12-28T12:40:41.388Z,98608.95
2022-12-28T12:43:38.363Z,98602.49
2022-12-28T12:46:37.206Z,98602.24
2022-12-28T12:49:43.379Z,98605.52
2022-12-28T12:52:51.750Z,98602.58
2022-12-28T12:55:48.489Z,98609.80
2022-12-28T12:58:34.139Z,98609.28
2022-12-28T13:01:50.117Z,98599.36
2022-12-28T13:04:27.308Z,98601.80
2022-12-28T13:06:59.039Z,98599.92
2022-12-28T13:09:30.377Z,98602.06
2022-12-28T13:11:59.633Z,98600.75
2022-12-28T13:14:28.108Z,98598.86
2022-12-28T13:16:58.464Z,98601.56
2022-12-28T13:19:29.327Z,98601.85
2022-12-28T13:21:58.600Z,98602.11
2022-12-28T13:24:30.022Z,98601.86
2022-12-28T13:26:59.828Z,98599.19
2022-12-28T13:29:35.730Z,98604.03
2022-12-28T13:32:03.589Z,98600.53
2022-12-28T13:34:35.471Z,98598.39
2022-12-28T13:37:16.186Z,98601.91
2022-12-28T13:39:47.489Z,98600.56
2022-12-28T13:42:19.903Z,98588.73
2022-12-28T13:45:01.602Z,98597.05
2022-12-28T13:47:40.305Z,98592.27
2022-12-28T13:50:18.742Z,98595.22
2022-12-28T13:53:06.769Z,98596.28
2022-12-28T13:55:39.874Z,98602.47
2022-12-28T13:58:18.643Z,98598.43
2022-12-28T14:00:48.411Z,98599.25
2022-12-28T14:03:18.223Z,98597.87
2022-12-28T14:05:51.119Z,98595.15
2022-12-28T14:08:18.761Z,98592.72
2022-12-28T14:10:47.715Z,98600.00
2022-12-28T14:13:18.181Z,98602.14
2022-12-28T14:15:46.827Z,98598.61
2022-12-28T14:18:18.289Z,98605.03
2022-12-28T14:20:55.057Z,98592.09
2022-12-28T14:23:32.647Z,98595.55
2022-12-28T14:26:20.022Z,98593.91
2022-12-28T14:28:52.427Z,98589.81
2022-12-28T14:31:25.433Z,98591.13
2022-12-28T14:34:03.123Z,98588.12
2022-12-28T14:36:38.812Z,98586.47
2022-12-28T14:39:07.365Z,98590.42
2022-12-28T14:41:44.858Z,98591.41
2022-12-28T14:44:20.925Z,98586.53
2022-12-28T14:46:52.142Z,98588.32
2022-12-28T14:49:35.635Z,98587.69
2022-12-28T14:52:15.777Z,98582.76
2022-12-28T14:54:51.071Z,98590.43
2022-12-28T14:57:35.691Z,98594.07
2022-12-28T15:00:17.814Z,98596.67
2022-12-28T15:02:45.945Z,98595.20
2022-12-28T15:05:38.586Z,98591.10
2022-12-28T15:08:07.191Z,98590.70
2022-12-28T15:10:42.282Z,98596.19
2022-12-28T15:13:11.244Z,98589.70
2022-12-28T15:15:38.885Z,98595.23
2022-12-28T15:18:06.506Z,98597.28
2022-12-28T15:20:37.623Z,98593.95
2022-12-28T15:23:05.608Z,98600.29
2022-12-28T15:25:35.139Z,98602.05
2022-12-28T15:28:03.581Z,98602.48
2022-12-28T15:30:31.043Z,98599.73
2022-12-28T15:32:58.853Z,98603.41
2022-12-28T15:35:26.626Z,98603.53
2022-12-28T15:37:54.009Z,98597.05
2022-12-28T15:40:21.760Z,98593.76
2022-12-28T15:42:49.339Z,98586.70
2022-12-28T15:45:17.552Z,98587.69
2022-12-28T15:47:45.715Z,98585.42
2022-12-28T15:50:13.466Z,98585.33
2022-12-28T15:52:40.963Z,98588.20
2022-12-28T15:55:09.093Z,98591.86
2022-12-28T15:57:36.811Z,98593.12
2022-12-28T16:00:05.649Z,98584.49
2022-12-28T16:02:33.399Z,98580.44
2022-12-28T16:05:01.743Z,98580.91
2022-12-28T16:07:29.353Z,98579.02
2022-12-28T16:09:56.819Z,98578.71
2022-12-28T16:12:24.395Z,98576.88
2022-12-28T16:14:51.868Z,98580.03
2022-12-28T16:17:19.450Z,98574.08
2022-12-28T16:19:47.232Z,98572.41
2022-12-28T16:22:14.853Z,98586.77
2022-12-28T16:24:42.590Z,98582.48
2022-12-28T16:27:10.164Z,98584.82
2022-12-28T16:29:37.995Z,98590.89
2022-12-28T16:32:05.985Z,98594.08
2022-12-28T16:34:33.903Z,98597.25
2022-12-28T16:37:01.971Z,98591.91
2022-12-28T16:39:30.450Z,98590.58
2022-12-28T16:41:58.333Z,98595.42
2022-12-28T16:44:27.366Z,98594.11
2022-12-28T16:46:59.699Z,98597.17
2022-12-28T16:49:29.071Z,98591.86
2022-12-28T16:51:57.095Z,98589.80
2022-12-28T16:54:26.912Z,98589.32
2022-12-28T16:56:55.073Z,98588.57
2022-12-28T16:59:26.507Z,98587.70
2022-12-28T17:01:56.441Z,98589.30
2022-12-28T17:04:24.485Z,98587.32
2022-12-28T17:06:52.583Z,98587.23
2022-12-28T17:09:20.996Z,98586.09
2022-12-28T17:11:50.167Z,98581.81
2022-12-28T17:14:35.933Z,98581.23
2022-12-28T17:16:47.932Z,98583.06
2022-12-28T17:19:16.452Z,98591.08
2022-12-28T17:21:44.015Z,98586.02
2022-12-28T17:24:11.710Z,98591.36
2022-12-28T17:26:39.384Z,98586.57
2022-12-28T17:29:06.966Z,98584.95
2022-12-28T17:31:34.742Z,98583.87
2022-12-28T17:34:03.180Z,98585.43
2022-12-28T17:36:31.000Z,98585.94
2022-12-28T17:38:58.547Z,98589.60
2022-12-28T17:41:28.161Z,98594.33
2022-12-28T17:43:59.419Z,98583.53
2022-12-28T17:46:29.442Z,98581.02
2022-12-28T17:48:59.765Z,98577.73
2022-12-28T17:51:28.724Z,98581.93
2022-12-28T17:53:57.150Z,98581.53
2022-12-28T17:56:25.723Z,98578.52
2022-12-28T17:58:58.512Z,98582.49
2022-12-28T18:01:27.380Z,98576.34
2022-12-28T18:03:56.906Z,98581.44
2022-12-28T18:06:25.605Z,98574.77
2022-12-28T18:08:53.183Z,98582.49
2022-12-28T18:11:20.987Z,98576.84
2022-12-28T18:13:48.718Z,98575.77
2022-12-28T18:16:19.431Z,98574.17
2022-12-28T18:18:47.803Z,98571.66
2022-12-28T18:21:21.794Z,98570.14
2022-12-28T18:23:50.623Z,98567.25
2022-12-28T18:26:25.661Z,98576.62
2022-12-28T18:28:55.950Z,98575.06
2022-12-28T18:31:24.841Z,98574.48
2022-12-28T18:33:52.719Z,98583.27
2022-12-28T18:36:23.285Z,98576.28
2022-12-28T18:38:50.801Z,98582.45
2022-12-28T18:41:22.610Z,98584.78
2022-12-28T18:43:53.234Z,98584.20
2022-12-28T18:46:20.952Z,98582.31
2022-12-28T18:48:48.397Z,98588.39
2022-12-28T18:51:17.932Z,98584.58
2022-12-28T18:53:45.783Z,98584.02
2022-12-28T18:56:20.138Z,98590.87
2022-12-28T18:58:55.764Z,98594.00
2022-12-28T19:04:00.126Z,98598.91
2022-12-28T19:06:28.781Z,98598.91
2022-12-28T19:09:00.474Z,98591.71
2022-12-28T19:11:28.931Z,98589.29
2022-12-28T19:13:57.336Z,98589.53
2022-12-28T19:16:31.010Z,98583.61
2022-12-28T19:18:54.558Z,98583.80
2022-12-28T19:21:40.272Z,98582.64
2022-12-28T19:24:18.476Z,98581.59
2022-12-28T19:26:47.377Z,98575.97
2022-12-28T19:29:15.985Z,98574.36
2022-12-28T19:31:44.214Z,98576.22
2022-12-28T19:34:12.465Z,98572.50
2022-12-28T19:36:40.307Z,98568.84
2022-12-28T19:39:07.741Z,98570.52
2022-12-28T19:41:35.343Z,98574.05
2022-12-28T19:44:03.069Z,98575.08
2022-12-28T19:46:31.137Z,98574.98
2022-12-28T19:49:01.741Z,98576.04
2022-12-28T19:51:32.148Z,98576.56
2022-12-28T19:54:01.169Z,98579.98
2022-12-28T19:56:30.858Z,98576.26
2022-12-28T19:59:05.390Z,98578.98
2022-12-28T20:01:28.688Z,98574.17
2022-12-28T20:03:56.781Z,98567.10
2022-12-28T20:06:28.311Z,98575.01
2022-12-28T20:08:59.290Z,98578.14
2022-12-28T20:11:28.419Z,98580.80
2022-12-28T20:14:02.161Z,98588.53
2022-12-28T20:16:32.483Z,98591.26
2022-12-28T20:19:01.107Z,98586.73
2022-12-28T20:21:28.585Z,98586.73
2022-12-28T20:23:56.258Z,98588.12
2022-12-28T20:26:26.291Z,98596.23
2022-12-28T20:28:54.163Z,98593.10
2022-12-28T20:31:22.105Z,98593.13
2022-12-28T20:33:50.276Z,98592.08
2022-12-28T20:36:24.812Z,98594.19
2022-12-28T20:38:55.032Z,98591.80
2022-12-28T20:41:44.964Z,98590.53
2022-12-28T20:44:17.322Z,98586.00
2022-12-28T20:46:45.955Z,98595.80
2022-12-28T20:49:13.447Z,98590.92
2022-12-28T20:51:41.865Z,98598.19
2022-12-28T20:54:10.746Z,98597.72
2022-12-28T20:56:41.306Z,98599.34
2022-12-28T20:59:11.060Z,98596.20
2022-12-28T21:01:39.874Z,98592.39
2022-12-28T21:04:08.594Z,98600.27
2022-12-28T21:06:36.237Z,98592.69
2022-12-28T21:09:05.093Z,98589.68
2022-12-28T21:11:32.883Z,98589.05
2022-12-28T21:14:00.526Z,98583.09
2022-12-28T21:16:28.211Z,98581.66
2022-12-28T21:18:55.959Z,98574.58
2022-12-28T21:21:23.889Z,98580.97
2022-12-28T21:23:54.244Z,98578.48
2022-12-28T21:26:22.564Z,98569.89
2022-12-28T21:28:50.905Z,98558.14
2022-12-28T21:31:18.332Z,98560.00
2022-12-28T21:33:46.006Z,98551.09
2022-12-28T21:36:17.187Z,98543.77
2022-12-28T21:38:46.788Z,98547.94
2022-12-28T21:41:37.134Z,98544.72
2022-12-28T21:44:11.195Z,98543.94
2022-12-28T21:46:39.266Z,98534.16
2022-12-28T21:49:07.561Z,98529.98
2022-12-28T21:51:35.605Z,98532.08
2022-12-28T21:54:16.713Z,98535.31
2022-12-28T21:56:48.581Z,98543.13
2022-12-28T21:59:16.016Z,98543.47
2022-12-28T22:02:02.235Z,98538.95
2022-12-28T22:04:48.936Z,98541.61
2022-12-28T22:07:18.801Z,98534.08
2022-12-28T22:10:05.575Z,98530.22
2022-12-28T22:12:34.022Z,98531.20
2022-12-28T22:15:33.815Z,98525.88
2022-12-28T22:18:08.701Z,98535.45
2022-12-28T22:20:37.773Z,98521.95
2022-12-28T22:23:06.509Z,98522.94
2022-12-28T22:25:36.279Z,98515.75
2022-12-28T22:28:05.097Z,98510.67
2022-12-28T22:30:35.559Z,98503.66
2022-12-28T22:33:03.732Z,98500.40
2022-12-28T22:35:32.134Z,98497.00
2022-12-28T22:38:00.441Z,98491.17
2022-12-28T22:40:28.748Z,98492.23
2022-12-28T22:42:56.401Z,98498.61
2022-12-28T22:45:24.398Z,98500.22
2022-12-28T22:47:53.734Z,98495.17
2022-12-28T22:50:21.430Z,98489.10
2022-12-28T22:52:49.137Z,98496.14
2022-12-28T22:55:16.982Z,98488.39
2022-12-28T22:57:44.715Z,98486.08
2022-12-28T23:00:14.555Z,98488.81
2022-12-28T23:02:42.423Z,98496.28
2022-12-28T23:05:10.589Z,98496.73
2022-12-28T23:07:38.982Z,98505.78
2022-12-28T23:10:09.627Z,98507.30
2022-12-28T23:12:37.633Z,98508.04
2022-12-28T23:15:17.733Z,98502.42
2022-12-28T23:17:47.727Z,98497.63
2022-12-28T23:20:36.504Z,98494.33
2022-12-28T23:23:22.647Z,98500.50
2022-12-28T23:26:08.978Z,98499.48
2022-12-28T23:28:36.670Z,98492.30
2022-12-28T23:31:04.835Z,98496.33
2022-12-28T23:33:32.268Z,98499.05
2022-12-28T23:36:04.393Z,98500.73
2022-12-28T23:38:32.853Z,98495.12
2022-12-28T23:41:24.560Z,98489.83
2022-12-28T23:43:52.128Z,98479.97
2022-12-28T23:46:19.747Z,98484.74
2022-12-28T23:48:47.493Z,98478.27
2022-12-28T23:51:16.569Z,98479.94
2022-12-28T23:53:44.361Z,98480.22
2022-12-28T23:56:11.897Z,98475.34
2022-12-28T23:58:39.773Z,98477.98
